Terminal Aerodrome Forecast
Issued by NWS

Home | Current Version | Previous Version | Graphics & Text | Print | Product List | Glossary On
Versions: 1 2 3 4 5 6 7 8 9 10 11 12 13 14 15 16 17 18 19 20
000
FTUS43 KICT 260825 AAA
TAFRSL
TAF AMD
KRSL 260825Z 2608/2706 11006KT P6SM SCT100
      TEMPO 2609/2613 4SM BR SCT015
     FM261500 15007KT P6SM SCT030
     FM261900 14012KT P6SM FEW030
     FM270100 15007KT P6SM SCT030=

USA.gov is the U.S. government's official web portal to all federal, state and local government web resources and services.